Time;durP1;ratioP1;P1;durP2;ratioP2;P2;SDS_P1;SDS_P2;PMS_P1;PMS_P2;Temp;Humidity;BMP_temperature;BMP_pressure;BME280_temperature;BME280_humidity;BME280_pressure;Samples;Min_cycle;Max_cycle;Signal;HPM_P1;HPM_P2
2023/01/27 00:00:19;;;;;;;5.07;2.30;;;;;;;;;;5060443;28;20439;-81
2023/01/27 00:02:49;;;;;;;6.23;2.40;;;;;;;;;;5060400;28;20428;-81
2023/01/27 00:05:18;;;;;;;3.53;1.90;;;;;;;;;;5062535;28;20435;-81
2023/01/27 00:07:47;;;;;;;3.73;2.10;;;;;;;;;;5061523;28;20431;-80
2023/01/27 00:10:20;;;;;;;3.40;1.85;;;;;;;;;;5070163;28;20768;-81
2023/01/27 00:15:39;;;;;;;4.03;1.77;;;;;;;;;;5062939;28;20425;-81
2023/01/27 00:18:08;;;;;;;3.40;1.90;;;;;;;;;;5059932;28;22518;-81
2023/01/27 00:26:18;;;;;;;3.22;1.83;;;;;;;;;;5061538;28;20891;-81
2023/01/27 00:28:51;;;;;;;4.10;1.80;;;;;;;;;;5067249;28;20907;-81
2023/01/27 00:34:16;;;;;;;5.20;2.00;;;;;;;;;;5056438;28;21105;-80
2023/01/27 00:36:48;;;;;;;3.75;1.90;;;;;;;;;;5062612;28;20429;-81
2023/01/27 00:39:16;;;;;;;4.07;2.10;;;;;;;;;;5058641;28;20437;-82
2023/01/27 00:41:44;;;;;;;4.45;2.20;;;;;;;;;;5061537;28;21226;-81
2023/01/27 00:44:12;;;;;;;4.53;2.30;;;;;;;;;;5056975;28;20417;-81
2023/01/27 00:46:45;;;;;;;4.50;2.30;;;;;;;;;;5062367;28;20772;-82
2023/01/27 00:49:19;;;;;;;4.82;2.53;;;;;;;;;;5062874;28;20911;-81
2023/01/27 00:51:53;;;;;;;5.13;2.20;;;;;;;;;;5082711;28;20430;-82
2023/01/27 00:54:21;;;;;;;5.38;2.30;;;;;;;;;;5065973;28;20881;-81
2023/01/27 00:56:49;;;;;;;4.88;2.20;;;;;;;;;;5061440;28;20434;-83
2023/01/27 00:59:22;;;;;;;4.25;2.10;;;;;;;;;;5069703;28;20425;-81
2023/01/27 01:01:55;;;;;;;5.28;2.40;;;;;;;;;;5078533;28;20424;-82
2023/01/27 01:04:24;;;;;;;4.47;2.20;;;;;;;;;;5066533;28;20432;-80
2023/01/27 01:06:57;;;;;;;4.40;2.50;;;;;;;;;;5073765;28;20421;-81
2023/01/27 01:09:25;;;;;;;5.85;2.45;;;;;;;;;;5068585;28;20427;-80
2023/01/27 01:11:58;;;;;;;5.63;2.53;;;;;;;;;;5067277;28;20415;-81
2023/01/27 01:14:25;;;;;;;5.55;2.58;;;;;;;;;;5063717;28;20435;-80
2023/01/27 01:16:55;;;;;;;6.47;2.50;;;;;;;;;;5064275;28;20425;-81
2023/01/27 01:19:30;;;;;;;5.55;2.35;;;;;;;;;;5059879;28;20430;-81
2023/01/27 01:22:03;;;;;;;5.38;2.50;;;;;;;;;;5068180;28;20431;-83
2023/01/27 01:24:36;;;;;;;5.80;2.50;;;;;;;;;;5063775;28;20907;-81
2023/01/27 01:27:09;;;;;;;5.05;2.40;;;;;;;;;;5068412;28;20423;-81
2023/01/27 01:29:42;;;;;;;5.82;2.40;;;;;;;;;;5065570;28;20490;-82
2023/01/27 01:32:14;;;;;;;3.63;2.05;;;;;;;;;;5055520;28;20444;-80
2023/01/27 01:34:49;;;;;;;5.60;2.20;;;;;;;;;;5066094;28;20424;-80
2023/01/27 01:37:22;;;;;;;6.50;2.03;;;;;;;;;;5062532;28;20425;-82
2023/01/27 01:39:54;;;;;;;4.95;2.28;;;;;;;;;;5066007;28;20428;-81
2023/01/27 01:42:23;;;;;;;5.38;2.28;;;;;;;;;;5060427;28;20431;-81
2023/01/27 01:44:54;;;;;;;4.73;2.30;;;;;;;;;;5064476;28;20834;-80
2023/01/27 01:47:27;;;;;;;4.57;2.40;;;;;;;;;;5050000;28;20431;-81
2023/01/27 01:49:56;;;;;;;4.27;2.20;;;;;;;;;;5074112;28;20421;-81
2023/01/27 01:52:29;;;;;;;3.50;2.05;;;;;;;;;;5063798;28;20431;-81
2023/01/27 01:54:57;;;;;;;4.10;2.13;;;;;;;;;;5068262;28;20435;-81
2023/01/27 01:57:32;;;;;;;5.03;2.20;;;;;;;;;;5066599;28;20498;-81
2023/01/27 02:00:01;;;;;;;6.97;2.20;;;;;;;;;;5059374;28;20425;-81
2023/01/27 02:02:40;;;;;;;4.20;2.03;;;;;;;;;;5075381;28;20787;-81
2023/01/27 02:05:17;;;;;;;4.85;2.20;;;;;;;;;;5067118;28;20435;-81
2023/01/27 02:07:53;;;;;;;4.28;2.08;;;;;;;;;;5079869;28;20434;-81
2023/01/27 02:10:26;;;;;;;4.80;2.38;;;;;;;;;;5068581;28;20430;-81
2023/01/27 02:12:58;;;;;;;4.85;2.20;;;;;;;;;;5063876;28;20435;-81
2023/01/27 02:15:31;;;;;;;3.75;1.90;;;;;;;;;;5068098;28;21100;-82
2023/01/27 02:18:00;;;;;;;4.90;2.05;;;;;;;;;;5079795;28;20425;-81
2023/01/27 02:20:39;;;;;;;4.80;2.20;;;;;;;;;;5063331;28;20428;-82
2023/01/27 02:23:17;;;;;;;3.47;1.90;;;;;;;;;;5061605;28;20436;-81
2023/01/27 02:25:50;;;;;;;5.43;2.20;;;;;;;;;;5068811;28;20443;-81
2023/01/27 02:28:26;;;;;;;4.38;2.05;;;;;;;;;;5066946;28;20430;-81
2023/01/27 02:30:58;;;;;;;5.03;1.83;;;;;;;;;;5073125;28;20436;-82
2023/01/27 02:33:33;;;;;;;5.50;2.30;;;;;;;;;;5064723;28;20412;-80
2023/01/27 02:36:08;;;;;;;4.78;2.25;;;;;;;;;;5082935;28;20446;-81
2023/01/27 02:38:44;;;;;;;4.10;1.70;;;;;;;;;;5081565;28;20408;-80
2023/01/27 02:41:20;;;;;;;4.38;1.90;;;;;;;;;;5081646;28;20431;-81
2023/01/27 02:43:49;;;;;;;4.35;2.00;;;;;;;;;;5080607;28;21092;-80
2023/01/27 02:46:18;;;;;;;5.05;1.90;;;;;;;;;;5065773;28;20408;-80
2023/01/27 02:48:50;;;;;;;3.42;1.70;;;;;;;;;;5065308;28;20950;-81
2023/01/27 02:51:23;;;;;;;2.97;1.80;;;;;;;;;;5063217;28;20425;-82
2023/01/27 02:53:51;;;;;;;4.93;1.90;;;;;;;;;;5079534;28;20421;-81
2023/01/27 02:56:26;;;;;;;5.88;1.88;;;;;;;;;;5069096;28;20424;-81
2023/01/27 02:58:59;;;;;;;3.80;1.90;;;;;;;;;;5079657;28;20420;-81
2023/01/27 03:01:33;;;;;;;4.82;1.83;;;;;;;;;;5066513;28;20411;-81
2023/01/27 03:04:07;;;;;;;3.80;1.90;;;;;;;;;;5058202;28;20408;-81
2023/01/27 03:06:40;;;;;;;5.20;1.88;;;;;;;;;;5066557;28;20425;-80
2023/01/27 03:09:13;;;;;;;4.63;1.90;;;;;;;;;;5081831;28;20416;-81
2023/01/27 03:20:27;;;;;;;4.20;1.50;;;;;;;;;;5078315;28;20420;-82
2023/01/27 03:22:55;;;;;;;5.68;1.60;;;;;;;;;;5077889;28;20427;-82
2023/01/27 03:25:28;;;;;;;3.88;1.30;;;;;;;;;;5062562;28;20429;-81
2023/01/27 03:28:02;;;;;;;3.70;1.48;;;;;;;;;;5064813;28;20788;-81
2023/01/27 03:30:45;;;;;;;5.38;1.58;;;;;;;;;;5079610;28;20430;-80
2023/01/27 03:33:23;;;;;;;6.03;1.55;;;;;;;;;;5061278;28;21017;-80
2023/01/27 03:47:17;;;;;;;6.80;1.88;;;;;;;;;;5084545;28;20427;-80
2023/01/27 03:49:50;;;;;;;5.95;1.70;;;;;;;;;;5064460;28;21099;-81
2023/01/27 03:52:23;;;;;;;3.17;1.40;;;;;;;;;;5059786;28;20442;-81
2023/01/27 03:54:56;;;;;;;6.10;1.40;;;;;;;;;;5065938;28;20896;-81
2023/01/27 03:57:23;;;;;;;3.67;1.40;;;;;;;;;;5062480;28;20430;-81
2023/01/27 03:59:57;;;;;;;4.10;1.30;;;;;;;;;;5063443;28;21332;-81
2023/01/27 04:08:20;;;;;;;4.35;1.70;;;;;;;;;;5079059;28;20437;-81
2023/01/27 04:13:39;;;;;;;5.43;1.90;;;;;;;;;;5067381;28;20801;-81
2023/01/27 04:16:13;;;;;;;5.20;1.73;;;;;;;;;;5065953;28;20429;-81
2023/01/27 04:18:46;;;;;;;4.53;1.77;;;;;;;;;;5058710;28;20430;-81
2023/01/27 04:21:19;;;;;;;6.10;1.90;;;;;;;;;;5062795;28;20460;-83
2023/01/27 04:23:47;;;;;;;4.30;1.40;;;;;;;;;;5067853;28;20419;-82
2023/01/27 04:26:20;;;;;;;3.70;1.73;;;;;;;;;;5065952;28;20446;-80
2023/01/27 04:28:48;;;;;;;4.97;1.75;;;;;;;;;;5067622;28;20420;-81
2023/01/27 04:31:17;;;;;;;7.95;1.90;;;;;;;;;;5069201;28;20430;-81
2023/01/27 04:33:50;;;;;;;5.57;1.85;;;;;;;;;;5065833;28;20435;-81
2023/01/27 04:36:23;;;;;;;6.78;2.05;;;;;;;;;;5070023;28;20423;-81
2023/01/27 04:38:55;;;;;;;5.38;1.77;;;;;;;;;;5065684;28;20442;-81
2023/01/27 04:41:28;;;;;;;7.13;1.77;;;;;;;;;;5065465;28;20428;-81
2023/01/27 04:44:01;;;;;;;5.72;1.90;;;;;;;;;;5083173;28;20427;-82
2023/01/27 04:46:30;;;;;;;5.28;1.67;;;;;;;;;;5068531;28;20442;-81
2023/01/27 04:49:03;;;;;;;5.55;2.00;;;;;;;;;;5064015;28;20427;-80
2023/01/27 04:51:36;;;;;;;5.95;1.80;;;;;;;;;;5065731;28;20424;-81
2023/01/27 04:54:09;;;;;;;7.03;1.92;;;;;;;;;;5078025;28;20432;-81
2023/01/27 04:56:44;;;;;;;4.45;1.80;;;;;;;;;;5063364;28;21435;-80
2023/01/27 04:59:17;;;;;;;3.40;1.73;;;;;;;;;;5062722;28;20439;-83
2023/01/27 05:01:46;;;;;;;3.28;1.45;;;;;;;;;;5080819;28;20425;-82
2023/01/27 05:04:14;;;;;;;5.13;1.90;;;;;;;;;;5068421;28;20429;-80
2023/01/27 05:06:46;;;;;;;5.35;1.77;;;;;;;;;;5065096;28;20424;-81
2023/01/27 05:09:19;;;;;;;4.15;1.63;;;;;;;;;;5062970;28;20431;-80
2023/01/27 05:11:47;;;;;;;5.90;1.60;;;;;;;;;;5068880;28;20917;-81
2023/01/27 05:14:15;;;;;;;5.40;1.60;;;;;;;;;;5068549;28;20505;-81
2023/01/27 05:16:49;;;;;;;5.00;1.50;;;;;;;;;;5066859;28;20427;-80
2023/01/27 05:19:21;;;;;;;5.60;1.58;;;;;;;;;;5063711;28;20423;-81
2023/01/27 05:21:54;;;;;;;4.13;1.42;;;;;;;;;;5066020;28;20435;-81
2023/01/27 05:24:22;;;;;;;4.90;1.30;;;;;;;;;;5055671;28;20751;-80
2023/01/27 05:26:55;;;;;;;6.53;1.60;;;;;;;;;;5068460;28;20942;-81
2023/01/27 05:29:27;;;;;;;2.88;1.40;;;;;;;;;;5061885;28;20429;-82
2023/01/27 05:32:01;;;;;;;4.97;1.67;;;;;;;;;;5064096;28;20427;-81
2023/01/27 05:34:34;;;;;;;3.95;1.70;;;;;;;;;;5064753;28;20435;-80
2023/01/27 05:37:07;;;;;;;3.80;1.50;;;;;;;;;;5063438;28;20432;-80
2023/01/27 05:39:40;;;;;;;3.47;1.50;;;;;;;;;;5062437;28;20429;-81
2023/01/27 05:42:08;;;;;;;3.58;1.77;;;;;;;;;;5065811;28;20428;-81
2023/01/27 05:44:40;;;;;;;5.05;1.70;;;;;;;;;;5059531;28;21130;-81
2023/01/27 05:47:15;;;;;;;4.28;1.70;;;;;;;;;;5067109;28;20427;-81
2023/01/27 05:49:42;;;;;;;4.43;1.73;;;;;;;;;;5060214;28;20779;-81
2023/01/27 05:52:10;;;;;;;4.53;1.80;;;;;;;;;;5062791;28;20424;-80
2023/01/27 05:54:38;;;;;;;6.93;1.83;;;;;;;;;;5074210;28;20424;-82
2023/01/27 05:57:10;;;;;;;6.43;1.93;;;;;;;;;;5068154;28;20432;-82
2023/01/27 05:59:43;;;;;;;4.30;1.73;;;;;;;;;;5059386;28;20431;-80
2023/01/27 06:02:17;;;;;;;6.60;1.80;;;;;;;;;;5060072;28;21010;-80
2023/01/27 06:04:50;;;;;;;4.05;1.45;;;;;;;;;;5056165;28;20757;-80
2023/01/27 06:07:18;;;;;;;4.28;1.52;;;;;;;;;;5063150;28;20431;-81
2023/01/27 06:09:45;;;;;;;4.93;1.73;;;;;;;;;;5077209;28;20432;-80
2023/01/27 06:12:18;;;;;;;3.70;1.42;;;;;;;;;;5062358;28;20432;-80
2023/01/27 06:14:52;;;;;;;5.95;1.70;;;;;;;;;;5062805;28;20424;-81
2023/01/27 06:17:26;;;;;;;3.33;1.50;;;;;;;;;;5065533;28;20432;-80
2023/01/27 06:19:54;;;;;;;4.07;1.50;;;;;;;;;;5074121;28;20436;-80
2023/01/27 06:22:26;;;;;;;4.63;1.80;;;;;;;;;;5060040;28;20418;-80
2023/01/27 06:24:54;;;;;;;5.22;1.75;;;;;;;;;;5080452;28;20894;-81
2023/01/27 06:27:22;;;;;;;3.80;1.83;;;;;;;;;;5077136;28;20433;-82
2023/01/27 06:29:55;;;;;;;4.90;1.83;;;;;;;;;;5062521;28;20429;-81
2023/01/27 06:32:22;;;;;;;4.93;1.93;;;;;;;;;;5066257;28;20443;-81
2023/01/27 06:34:57;;;;;;;5.80;2.03;;;;;;;;;;5069336;28;20911;-81
2023/01/27 06:37:29;;;;;;;8.15;1.98;;;;;;;;;;5061739;28;20438;-80
2023/01/27 06:39:57;;;;;;;5.68;1.60;;;;;;;;;;5063149;28;20432;-81
2023/01/27 06:42:35;;;;;;;7.20;2.03;;;;;;;;;;5061750;28;20417;-81
2023/01/27 06:45:08;;;;;;;6.07;1.90;;;;;;;;;;5064296;28;21238;-80
2023/01/27 06:47:41;;;;;;;7.65;2.00;;;;;;;;;;5079295;28;20445;-80
2023/01/27 06:50:11;;;;;;;3.97;1.50;;;;;;;;;;5059605;28;20421;-81
2023/01/27 06:52:39;;;;;;;5.10;1.60;;;;;;;;;;5056976;28;20502;-82
2023/01/27 06:55:07;;;;;;;5.25;1.67;;;;;;;;;;5080073;28;20420;-81
2023/01/27 06:57:34;;;;;;;5.70;1.50;;;;;;;;;;5072036;28;20429;-80
2023/01/27 07:00:08;;;;;;;3.55;1.50;;;;;;;;;;5063468;28;21026;-82
2023/01/27 07:02:36;;;;;;;7.13;1.60;;;;;;;;;;5060825;28;20430;-80
2023/01/27 07:05:10;;;;;;;5.30;1.77;;;;;;;;;;5060998;28;20415;-80
2023/01/27 07:07:43;;;;;;;4.22;1.52;;;;;;;;;;5061501;28;20434;-81
2023/01/27 07:10:15;;;;;;;5.55;1.30;;;;;;;;;;5066105;28;20784;-80
2023/01/27 07:12:48;;;;;;;4.80;1.25;;;;;;;;;;5066399;28;20431;-81
2023/01/27 07:15:16;;;;;;;6.80;1.60;;;;;;;;;;5062945;28;20507;-81
2023/01/27 07:17:44;;;;;;;4.13;1.40;;;;;;;;;;5061646;28;20981;-81
2023/01/27 07:20:18;;;;;;;4.85;1.48;;;;;;;;;;5060521;28;20438;-81
2023/01/27 07:22:51;;;;;;;5.85;1.45;;;;;;;;;;5063040;28;20424;-81
2023/01/27 07:25:24;;;;;;;6.40;1.60;;;;;;;;;;5063980;28;20431;-80
2023/01/27 07:27:56;;;;;;;4.43;1.80;;;;;;;;;;5066572;28;20435;-80
2023/01/27 07:30:24;;;;;;;6.00;1.63;;;;;;;;;;5082380;28;20966;-80
2023/01/27 07:33:02;;;;;;;4.00;1.57;;;;;;;;;;5056207;28;20425;-80
2023/01/27 07:35:31;;;;;;;4.90;1.57;;;;;;;;;;5060110;28;20502;-80
2023/01/27 07:37:59;;;;;;;4.47;1.92;;;;;;;;;;5061074;28;20446;-81
2023/01/27 07:40:32;;;;;;;5.78;1.50;;;;;;;;;;5052984;28;20427;-82
2023/01/27 07:43:04;;;;;;;5.68;1.75;;;;;;;;;;5071922;28;20944;-82
2023/01/27 07:45:40;;;;;;;4.32;1.50;;;;;;;;;;5074823;28;20421;-82
2023/01/27 07:48:08;;;;;;;4.18;1.40;;;;;;;;;;5060757;28;20428;-82
2023/01/27 07:50:42;;;;;;;5.10;1.67;;;;;;;;;;5058686;28;20427;-81
2023/01/27 07:53:10;;;;;;;6.20;1.90;;;;;;;;;;5060251;28;20423;-82
2023/01/27 07:55:43;;;;;;;4.65;1.45;;;;;;;;;;5064634;28;20438;-81
2023/01/27 07:58:16;;;;;;;6.85;1.60;;;;;;;;;;5063193;28;20444;-81
2023/01/27 08:00:44;;;;;;;4.72;1.60;;;;;;;;;;5075895;28;20423;-82
2023/01/27 08:03:21;;;;;;;4.10;1.85;;;;;;;;;;5076909;28;20431;-81
2023/01/27 08:05:55;;;;;;;4.93;1.42;;;;;;;;;;5061159;28;20429;-82
2023/01/27 08:08:28;;;;;;;2.75;1.30;;;;;;;;;;5065437;28;20427;-82
2023/01/27 08:11:01;;;;;;;4.63;1.20;;;;;;;;;;5079252;28;20427;-82
2023/01/27 08:13:30;;;;;;;6.95;1.33;;;;;;;;;;5062051;28;20433;-83
2023/01/27 08:15:58;;;;;;;5.13;1.20;;;;;;;;;;5060620;28;20423;-82
2023/01/27 08:18:32;;;;;;;3.78;1.23;;;;;;;;;;5064090;28;20423;-81
2023/01/27 08:21:07;;;;;;;7.25;1.52;;;;;;;;;;5066793;28;20961;-82
2023/01/27 08:23:40;;;;;;;6.73;1.30;;;;;;;;;;5062089;28;20446;-81
2023/01/27 08:26:13;;;;;;;3.55;1.13;;;;;;;;;;5059863;28;21218;-83
2023/01/27 08:28:46;;;;;;;7.28;1.48;;;;;;;;;;5061454;28;20427;-81
2023/01/27 08:31:19;;;;;;;3.83;1.10;;;;;;;;;;5063158;28;20434;-82
2023/01/27 08:33:52;;;;;;;4.43;1.27;;;;;;;;;;5060920;28;20448;-83
2023/01/27 08:36:27;;;;;;;2.80;1.05;;;;;;;;;;5064338;28;20427;-82
2023/01/27 08:38:55;;;;;;;3.72;1.10;;;;;;;;;;5063617;28;20433;-81
2023/01/27 08:41:28;;;;;;;3.97;1.00;;;;;;;;;;5048957;28;20509;-82
2023/01/27 08:44:01;;;;;;;3.43;1.03;;;;;;;;;;5051713;28;20452;-82
2023/01/27 08:46:33;;;;;;;3.03;0.90;;;;;;;;;;5048985;28;20431;-82
2023/01/27 08:49:01;;;;;;;4.37;1.27;;;;;;;;;;5044484;28;20431;-82
2023/01/27 08:51:35;;;;;;;4.28;1.23;;;;;;;;;;5047430;28;20440;-83
2023/01/27 08:54:03;;;;;;;4.38;1.30;;;;;;;;;;5039140;28;20428;-83
2023/01/27 08:56:31;;;;;;;3.70;1.23;;;;;;;;;;5034576;28;20427;-83
2023/01/27 08:59:04;;;;;;;9.20;1.48;;;;;;;;;;5048499;28;20438;-82
2023/01/27 09:01:38;;;;;;;4.43;1.30;;;;;;;;;;5039733;28;20441;-82
2023/01/27 09:04:05;;;;;;;4.70;1.42;;;;;;;;;;5039292;28;20430;-82
2023/01/27 09:06:40;;;;;;;5.35;1.65;;;;;;;;;;5037919;28;20444;-82
2023/01/27 09:09:10;;;;;;;4.53;1.50;;;;;;;;;;5037728;28;22318;-82
2023/01/27 09:11:44;;;;;;;6.37;1.50;;;;;;;;;;5035295;28;21859;-82
2023/01/27 09:14:16;;;;;;;5.00;1.38;;;;;;;;;;5043305;28;20427;-81
2023/01/27 09:16:49;;;;;;;5.73;1.50;;;;;;;;;;5038065;28;20439;-82
2023/01/27 09:19:22;;;;;;;3.58;1.52;;;;;;;;;;5047853;28;20433;-86
2023/01/27 09:21:51;;;;;;;3.67;1.40;;;;;;;;;;5044588;28;21064;-82
2023/01/27 09:24:24;;;;;;;5.60;1.58;;;;;;;;;;5038641;28;20993;-82
2023/01/27 09:26:57;;;;;;;5.57;1.70;;;;;;;;;;5039817;28;20915;-83
2023/01/27 09:29:30;;;;;;;8.55;1.75;;;;;;;;;;5047661;28;20428;-82
2023/01/27 09:32:03;;;;;;;4.63;1.40;;;;;;;;;;5041709;28;21179;-83
2023/01/27 09:34:31;;;;;;;4.72;1.50;;;;;;;;;;5055070;28;20440;-82
2023/01/27 09:37:02;;;;;;;4.68;1.48;;;;;;;;;;5048152;28;20414;-82
2023/01/27 09:39:37;;;;;;;4.78;1.40;;;;;;;;;;5039073;28;20423;-83
2023/01/27 09:42:20;;;;;;;5.80;1.75;;;;;;;;;;5039196;28;20454;-82
2023/01/27 09:45:05;;;;;;;6.03;1.80;;;;;;;;;;5042021;28;20429;-82
2023/01/27 09:47:47;;;;;;;4.15;1.58;;;;;;;;;;5063388;28;20431;-81
2023/01/27 09:50:25;;;;;;;3.95;1.13;;;;;;;;;;5052008;28;20427;-82
2023/01/27 09:53:01;;;;;;;4.97;1.30;;;;;;;;;;5064012;28;20435;-82
2023/01/27 09:55:39;;;;;;;4.22;1.10;;;;;;;;;;5053760;28;21046;-81
2023/01/27 09:58:17;;;;;;;7.03;1.30;;;;;;;;;;5046615;28;21271;-82
2023/01/27 10:00:56;;;;;;;4.30;1.20;;;;;;;;;;5041066;28;20462;-82
2023/01/27 10:03:42;;;;;;;5.80;1.20;;;;;;;;;;5031291;28;20462;-85
2023/01/27 10:06:26;;;;;;;3.25;1.25;;;;;;;;;;5048787;28;20974;-81
2023/01/27 10:09:10;;;;;;;3.88;1.30;;;;;;;;;;5057375;28;20428;-82
2023/01/27 10:11:49;;;;;;;6.50;1.38;;;;;;;;;;5044675;28;20474;-83
2023/01/27 10:14:26;;;;;;;5.75;1.20;;;;;;;;;;5040845;28;20462;-85
2023/01/27 10:17:10;;;;;;;3.38;1.13;;;;;;;;;;5042680;28;20426;-82
2023/01/27 10:19:50;;;;;;;4.30;1.30;;;;;;;;;;5042607;28;20886;-83
2023/01/27 10:22:21;;;;;;;6.75;1.40;;;;;;;;;;5040024;28;20816;-84
2023/01/27 10:25:00;;;;;;;3.65;1.40;;;;;;;;;;5043796;28;20458;-83
2023/01/27 10:27:33;;;;;;;4.90;1.60;;;;;;;;;;5048321;28;20466;-82
2023/01/27 10:30:09;;;;;;;2.30;1.10;;;;;;;;;;5048074;28;20434;-82
2023/01/27 10:32:44;;;;;;;4.07;1.30;;;;;;;;;;5052413;28;20438;-83
2023/01/27 10:35:19;;;;;;;4.57;1.10;;;;;;;;;;5044950;28;20439;-82
2023/01/27 10:37:52;;;;;;;3.40;1.08;;;;;;;;;;5044065;28;20431;-84
2023/01/27 10:40:31;;;;;;;3.85;1.08;;;;;;;;;;5047749;28;20443;-84
2023/01/27 10:43:03;;;;;;;3.80;0.95;;;;;;;;;;5057141;28;20428;-85
2023/01/27 10:45:36;;;;;;;5.47;1.10;;;;;;;;;;5048615;28;20994;-81
2023/01/27 10:48:21;;;;;;;3.03;1.10;;;;;;;;;;5048492;28;20436;-82
2023/01/27 10:50:50;;;;;;;4.07;0.90;;;;;;;;;;5045573;28;21232;-84
2023/01/27 10:53:27;;;;;;;4.57;1.08;;;;;;;;;;5053920;28;21124;-83
2023/01/27 10:56:05;;;;;;;4.60;0.90;;;;;;;;;;5048304;28;20435;-83
2023/01/27 10:58:48;;;;;;;5.28;1.48;;;;;;;;;;5047839;28;20684;-82
2023/01/27 11:01:17;;;;;;;6.35;1.30;;;;;;;;;;5042452;28;20428;-81
2023/01/27 11:03:53;;;;;;;3.72;0.90;;;;;;;;;;5042075;28;21018;-82
2023/01/27 11:06:28;;;;;;;3.45;1.08;;;;;;;;;;5047723;28;20427;-83
2023/01/27 11:09:01;;;;;;;2.75;0.85;;;;;;;;;;5042529;28;20474;-82
2023/01/27 11:11:46;;;;;;;3.22;1.08;;;;;;;;;;5051385;28;20433;-85
2023/01/27 11:14:22;;;;;;;4.57;1.20;;;;;;;;;;5047297;28;20430;-83
2023/01/27 11:16:51;;;;;;;4.63;1.08;;;;;;;;;;5040354;28;20660;-85
2023/01/27 11:19:24;;;;;;;3.67;1.00;;;;;;;;;;5056678;28;20784;-83
2023/01/27 11:21:57;;;;;;;4.95;1.13;;;;;;;;;;5041282;28;20447;-83
2023/01/27 11:24:28;;;;;;;4.55;1.10;;;;;;;;;;5048111;28;20783;-82
2023/01/27 11:27:00;;;;;;;3.47;1.00;;;;;;;;;;5062675;28;21367;-83
2023/01/27 11:29:35;;;;;;;3.55;0.85;;;;;;;;;;5041683;28;20773;-83
2023/01/27 11:32:07;;;;;;;5.40;1.00;;;;;;;;;;5040129;28;20915;-84
2023/01/27 11:34:43;;;;;;;5.72;1.20;;;;;;;;;;5043830;28;20446;-82
2023/01/27 11:37:18;;;;;;;4.93;1.17;;;;;;;;;;5043322;28;20435;-82
2023/01/27 11:39:46;;;;;;;5.60;1.10;;;;;;;;;;5048938;28;20424;-83
2023/01/27 11:42:16;;;;;;;3.38;0.90;;;;;;;;;;5056581;28;20431;-84
2023/01/27 11:44:50;;;;;;;4.53;1.00;;;;;;;;;;5052569;28;21728;-83
2023/01/27 11:47:21;;;;;;;8.15;1.30;;;;;;;;;;5041129;28;20450;-82
2023/01/27 11:49:54;;;;;;;4.22;1.20;;;;;;;;;;5042494;28;20446;-82
2023/01/27 11:52:27;;;;;;;4.72;1.10;;;;;;;;;;5040092;28;20439;-83
2023/01/27 11:54:59;;;;;;;2.50;1.00;;;;;;;;;;5036380;28;20451;-81
2023/01/27 11:57:29;;;;;;;5.05;1.10;;;;;;;;;;5046525;28;20859;-83
2023/01/27 11:59:58;;;;;;;4.28;1.50;;;;;;;;;;5045018;28;20907;-84
2023/01/27 12:02:35;;;;;;;4.43;1.00;;;;;;;;;;5052553;28;20446;-82
2023/01/27 12:05:06;;;;;;;6.45;1.10;;;;;;;;;;5041721;28;20424;-83
2023/01/27 12:07:43;;;;;;;3.72;1.10;;;;;;;;;;5045737;28;21846;-84
2023/01/27 12:10:26;;;;;;;3.13;1.00;;;;;;;;;;5042960;28;21044;-81
2023/01/27 12:13:07;;;;;;;3.70;1.20;;;;;;;;;;5042162;28;20420;-82
2023/01/27 12:15:47;;;;;;;4.25;1.15;;;;;;;;;;5042364;28;20426;-83
2023/01/27 12:18:22;;;;;;;4.90;1.20;;;;;;;;;;5044049;28;20443;-84
2023/01/27 12:20:59;;;;;;;5.00;1.13;;;;;;;;;;5046476;28;20438;-83
2023/01/27 12:23:28;;;;;;;4.32;1.20;;;;;;;;;;5042972;28;20434;-82
2023/01/27 12:26:01;;;;;;;2.17;0.90;;;;;;;;;;5048214;28;20431;-82
2023/01/27 12:28:36;;;;;;;4.55;1.00;;;;;;;;;;5050853;28;20438;-82
2023/01/27 12:31:11;;;;;;;2.67;0.90;;;;;;;;;;5049809;28;20420;-82
2023/01/27 12:33:45;;;;;;;5.45;1.10;;;;;;;;;;5047809;28;21281;-84
2023/01/27 12:36:14;;;;;;;2.53;0.90;;;;;;;;;;5044779;28;20439;-84
2023/01/27 12:38:48;;;;;;;4.82;1.25;;;;;;;;;;5040939;28;20431;-84
2023/01/27 12:41:20;;;;;;;4.43;1.13;;;;;;;;;;5024308;28;20431;-83
2023/01/27 12:43:55;;;;;;;2.33;0.80;;;;;;;;;;5048995;28;20514;-82
2023/01/27 12:46:28;;;;;;;4.72;0.95;;;;;;;;;;5045504;28;20438;-81
2023/01/27 12:49:02;;;;;;;4.35;0.80;;;;;;;;;;5052243;28;20435;-82
2023/01/27 12:51:39;;;;;;;1.38;0.70;;;;;;;;;;5047437;28;20435;-83
2023/01/27 12:54:14;;;;;;;2.58;0.70;;;;;;;;;;5048062;28;21229;-84
2023/01/27 12:56:42;;;;;;;5.13;0.87;;;;;;;;;;5046411;28;20426;-82
2023/01/27 12:59:18;;;;;;;3.67;0.68;;;;;;;;;;5048099;28;20891;-83
2023/01/27 13:01:58;;;;;;;3.78;0.70;;;;;;;;;;5054160;28;20895;-82
2023/01/27 13:04:31;;;;;;;4.88;0.80;;;;;;;;;;5048425;28;21159;-84
2023/01/27 13:07:05;;;;;;;5.85;0.80;;;;;;;;;;5055071;28;20435;-83
2023/01/27 13:09:34;;;;;;;5.45;0.80;;;;;;;;;;5045083;28;21351;-81
2023/01/27 13:12:12;;;;;;;1.60;0.63;;;;;;;;;;5052318;28;20451;-83
2023/01/27 13:14:42;;;;;;;5.78;0.80;;;;;;;;;;5048128;28;20428;-83
2023/01/27 13:17:29;;;;;;;2.20;0.60;;;;;;;;;;5057157;28;20427;-83
2023/01/27 13:20:03;;;;;;;2.90;0.63;;;;;;;;;;5049686;28;20508;-83
2023/01/27 13:22:40;;;;;;;2.45;0.90;;;;;;;;;;5046683;28;20427;-82
2023/01/27 13:25:13;;;;;;;1.70;0.60;;;;;;;;;;5056334;28;21288;-83
2023/01/27 13:27:41;;;;;;;4.57;0.90;;;;;;;;;;5047444;28;21342;-84
2023/01/27 13:30:14;;;;;;;4.78;0.93;;;;;;;;;;5059495;28;20811;-82
2023/01/27 13:32:49;;;;;;;3.55;0.65;;;;;;;;;;5058932;28;20434;-83
2023/01/27 13:35:24;;;;;;;2.45;0.70;;;;;;;;;;5047315;28;20438;-84
2023/01/27 13:37:59;;;;;;;3.65;0.77;;;;;;;;;;5049430;28;20422;-84
2023/01/27 13:40:29;;;;;;;3.25;0.77;;;;;;;;;;5047198;28;21128;-83
2023/01/27 13:43:01;;;;;;;2.47;0.70;;;;;;;;;;5024309;28;20423;-83
2023/01/27 13:45:36;;;;;;;5.03;0.90;;;;;;;;;;5062218;28;21055;-83
2023/01/27 13:48:06;;;;;;;2.25;0.70;;;;;;;;;;5050434;28;20435;-81
2023/01/27 13:50:36;;;;;;;2.72;0.70;;;;;;;;;;5050962;28;20438;-81
2023/01/27 13:53:10;;;;;;;1.80;0.70;;;;;;;;;;5047943;28;20440;-85
2023/01/27 13:55:47;;;;;;;2.95;0.70;;;;;;;;;;5041721;28;20459;-82
2023/01/27 13:58:23;;;;;;;2.03;0.60;;;;;;;;;;5047851;28;20423;-84
2023/01/27 14:01:01;;;;;;;2.67;0.70;;;;;;;;;;5048487;28;21054;-84
2023/01/27 14:03:41;;;;;;;3.17;0.93;;;;;;;;;;5064401;28;20785;-85
2023/01/27 14:06:25;;;;;;;6.13;0.80;;;;;;;;;;5049890;28;21148;-84
2023/01/27 14:09:08;;;;;;;3.13;0.75;;;;;;;;;;5050320;28;20430;-84
2023/01/27 14:11:45;;;;;;;4.53;1.00;;;;;;;;;;5045733;28;20432;-84
2023/01/27 14:14:24;;;;;;;5.10;1.00;;;;;;;;;;5055419;28;20439;-84
2023/01/27 14:17:11;;;;;;;3.15;0.65;;;;;;;;;;5050598;28;20427;-84
2023/01/27 14:19:50;;;;;;;5.63;1.20;;;;;;;;;;5044268;28;20442;-84
2023/01/27 14:22:26;;;;;;;4.03;0.82;;;;;;;;;;5048455;28;20442;-83
2023/01/27 14:24:56;;;;;;;3.67;1.05;;;;;;;;;;5049546;28;20423;-84
2023/01/27 14:27:26;;;;;;;3.90;0.80;;;;;;;;;;5067201;28;20960;-84
2023/01/27 14:29:57;;;;;;;5.45;0.70;;;;;;;;;;5057004;28;21011;-84
2023/01/27 14:32:36;;;;;;;1.80;0.60;;;;;;;;;;5047552;28;21286;-84
2023/01/27 14:35:33;;;;;;;2.53;0.70;;;;;;;;;;5061543;28;20432;-83
2023/01/27 14:38:09;;;;;;;5.15;1.08;;;;;;;;;;5032108;28;20446;-86
2023/01/27 14:40:48;;;;;;;3.55;0.75;;;;;;;;;;5050347;28;20419;-85
2023/01/27 14:43:28;;;;;;;2.08;0.80;;;;;;;;;;5031971;28;20435;-85
2023/01/27 14:45:59;;;;;;;3.30;0.88;;;;;;;;;;5054114;28;21784;-85
2023/01/27 14:48:37;;;;;;;4.18;0.90;;;;;;;;;;5047098;28;20426;-84
2023/01/27 14:51:16;;;;;;;3.92;0.90;;;;;;;;;;5048792;28;20904;-85
2023/01/27 14:53:57;;;;;;;4.32;0.88;;;;;;;;;;5057065;28;20423;-83
2023/01/27 14:56:31;;;;;;;2.95;0.80;;;;;;;;;;5048786;28;20419;-84
2023/01/27 14:59:07;;;;;;;5.63;0.90;;;;;;;;;;5047749;28;20471;-84
2023/01/27 15:01:44;;;;;;;2.85;0.85;;;;;;;;;;5051797;28;20432;-85
2023/01/27 15:04:23;;;;;;;3.92;1.00;;;;;;;;;;5045194;28;20423;-84
2023/01/27 15:06:58;;;;;;;3.63;1.00;;;;;;;;;;5048160;28;21203;-85
2023/01/27 15:09:32;;;;;;;4.03;0.90;;;;;;;;;;5045674;28;20408;-83
2023/01/27 15:12:15;;;;;;;4.25;0.90;;;;;;;;;;5045412;28;20446;-87
2023/01/27 15:15:09;;;;;;;5.20;1.02;;;;;;;;;;5047574;28;20435;-84
2023/01/27 15:17:52;;;;;;;4.18;0.95;;;;;;;;;;5021855;28;20428;-83
2023/01/27 15:20:27;;;;;;;2.95;0.80;;;;;;;;;;5066039;28;20442;-83
2023/01/27 15:23:04;;;;;;;3.33;1.00;;;;;;;;;;5048593;28;20915;-85
2023/01/27 15:25:39;;;;;;;4.18;1.10;;;;;;;;;;5045228;28;20432;-84
2023/01/27 15:28:13;;;;;;;4.00;1.13;;;;;;;;;;5045247;28;20431;-84
2023/01/27 15:31:00;;;;;;;4.57;1.00;;;;;;;;;;5044169;28;20424;-83
2023/01/27 15:33:49;;;;;;;4.30;1.00;;;;;;;;;;5047367;28;20431;-84
2023/01/27 15:36:31;;;;;;;4.40;0.90;;;;;;;;;;5051034;28;20415;-84
2023/01/27 15:39:00;;;;;;;3.25;0.98;;;;;;;;;;5056526;28;20415;-82
2023/01/27 15:41:28;;;;;;;2.50;0.77;;;;;;;;;;5028304;28;20415;-83
2023/01/27 15:44:03;;;;;;;3.75;1.00;;;;;;;;;;5053601;28;20442;-83
2023/01/27 15:46:33;;;;;;;3.10;0.80;;;;;;;;;;5061746;28;20432;-85
2023/01/27 15:49:15;;;;;;;2.90;0.80;;;;;;;;;;5044113;28;21140;-83
2023/01/27 15:51:44;;;;;;;6.32;0.98;;;;;;;;;;5041167;28;20434;-84
2023/01/27 15:54:16;;;;;;;3.22;1.00;;;;;;;;;;5042328;28;20431;-84
2023/01/27 15:56:46;;;;;;;6.20;1.30;;;;;;;;;;5042965;28;20439;-81
2023/01/27 15:59:22;;;;;;;5.93;1.30;;;;;;;;;;5043694;28;20872;-82